sensor_id;sensor_type;location;lat;lon;timestamp;temperature;humidity
22185;DHT22;11258;52.516;13.318;2023-07-13T00:00:25;22.00;99.90
22185;DHT22;11258;52.516;13.318;2023-07-13T00:02:51;21.90;99.90
22185;DHT22;11258;52.516;13.318;2023-07-13T00:05:21;21.90;99.90
22185;DHT22;11258;52.516;13.318;2023-07-13T00:07:47;21.80;99.90
22185;DHT22;11258;52.516;13.318;2023-07-13T00:10:13;21.80;99.90
22185;DHT22;11258;52.516;13.318;2023-07-13T00:12:39;21.80;99.90
22185;DHT22;11258;52.516;13.318;2023-07-13T00:15:21;21.70;99.90
22185;DHT22;11258;52.516;13.318;2023-07-13T00:17:49;21.70;99.90
22185;DHT22;11258;52.516;13.318;2023-07-13T00:20:15;21.60;99.90
22185;DHT22;11258;52.516;13.318;2023-07-13T00:22:40;21.60;99.90
22185;DHT22;11258;52.516;13.318;2023-07-13T00:25:08;21.70;99.90
22185;DHT22;11258;52.516;13.318;2023-07-13T00:27:34;21.70;99.90
22185;DHT22;11258;52.516;13.318;2023-07-13T00:30:12;21.50;99.90
22185;DHT22;11258;52.516;13.318;2023-07-13T00:32:38;21.50;99.90
22185;DHT22;11258;52.516;13.318;2023-07-13T00:35:04;21.50;99.90
22185;DHT22;11258;52.516;13.318;2023-07-13T00:37:30;21.40;99.90
22185;DHT22;11258;52.516;13.318;2023-07-13T00:39:55;21.40;99.90
22185;DHT22;11258;52.516;13.318;2023-07-13T00:42:21;21.40;99.90
22185;DHT22;11258;52.516;13.318;2023-07-13T00:46:02;21.40;99.90
22185;DHT22;11258;52.516;13.318;2023-07-13T00:47:51;21.40;99.90
22185;DHT22;11258;52.516;13.318;2023-07-13T00:50:18;21.40;99.90
22185;DHT22;11258;52.516;13.318;2023-07-13T00:52:47;21.30;99.90
22185;DHT22;11258;52.516;13.318;2023-07-13T00:55:14;21.30;99.90
22185;DHT22;11258;52.516;13.318;2023-07-13T00:57:41;21.20;99.90
22185;DHT22;11258;52.516;13.318;2023-07-13T01:00:07;21.20;99.90
22185;DHT22;11258;52.516;13.318;2023-07-13T01:02:37;21.10;99.90
22185;DHT22;11258;52.516;13.318;2023-07-13T01:05:14;21.00;99.90
22185;DHT22;11258;52.516;13.318;2023-07-13T01:07:41;21.00;99.90
22185;DHT22;11258;52.516;13.318;2023-07-13T01:10:08;21.10;99.90
22185;DHT22;11258;52.516;13.318;2023-07-13T01:12:34;21.20;99.90
22185;DHT22;11258;52.516;13.318;2023-07-13T01:15:01;21.20;99.90
22185;DHT22;11258;52.516;13.318;2023-07-13T01:17:31;21.20;99.90
22185;DHT22;11258;52.516;13.318;2023-07-13T01:19:59;21.10;99.90
22185;DHT22;11258;52.516;13.318;2023-07-13T01:22:26;21.10;99.90
22185;DHT22;11258;52.516;13.318;2023-07-13T01:24:53;21.20;99.90
22185;DHT22;11258;52.516;13.318;2023-07-13T01:27:24;21.20;99.90
22185;DHT22;11258;52.516;13.318;2023-07-13T01:29:51;21.20;99.90
22185;DHT22;11258;52.516;13.318;2023-07-13T01:32:20;21.30;99.90
22185;DHT22;11258;52.516;13.318;2023-07-13T01:34:50;21.30;99.90
22185;DHT22;11258;52.516;13.318;2023-07-13T01:37:19;21.30;99.90
22185;DHT22;11258;52.516;13.318;2023-07-13T01:39:46;21.30;99.90
22185;DHT22;11258;52.516;13.318;2023-07-13T01:42:12;21.20;99.90
22185;DHT22;11258;52.516;13.318;2023-07-13T01:44:38;21.20;99.90
22185;DHT22;11258;52.516;13.318;2023-07-13T01:47:03;21.10;99.90
22185;DHT22;11258;52.516;13.318;2023-07-13T01:49:29;21.10;99.90
22185;DHT22;11258;52.516;13.318;2023-07-13T01:51:55;21.10;99.90
22185;DHT22;11258;52.516;13.318;2023-07-13T01:54:20;21.00;99.90
22185;DHT22;11258;52.516;13.318;2023-07-13T01:56:46;21.00;99.90
22185;DHT22;11258;52.516;13.318;2023-07-13T01:59:11;21.00;99.90
22185;DHT22;11258;52.516;13.318;2023-07-13T02:01:37;21.00;99.90
22185;DHT22;11258;52.516;13.318;2023-07-13T02:04:03;20.90;99.90
22185;DHT22;11258;52.516;13.318;2023-07-13T02:06:29;20.70;99.90
22185;DHT22;11258;52.516;13.318;2023-07-13T02:08:55;20.80;99.90
22185;DHT22;11258;52.516;13.318;2023-07-13T02:11:20;20.80;99.90
22185;DHT22;11258;52.516;13.318;2023-07-13T02:13:46;20.80;99.90
22185;DHT22;11258;52.516;13.318;2023-07-13T02:16:12;20.80;99.90
22185;DHT22;11258;52.516;13.318;2023-07-13T02:18:37;20.80;99.90
22185;DHT22;11258;52.516;13.318;2023-07-13T02:21:03;20.80;99.90
22185;DHT22;11258;52.516;13.318;2023-07-13T02:23:29;20.90;99.90
22185;DHT22;11258;52.516;13.318;2023-07-13T02:25:59;20.80;99.90
22185;DHT22;11258;52.516;13.318;2023-07-13T02:28:24;20.80;99.90
22185;DHT22;11258;52.516;13.318;2023-07-13T02:30:50;20.80;99.90
22185;DHT22;11258;52.516;13.318;2023-07-13T02:33:16;20.80;99.90
22185;DHT22;11258;52.516;13.318;2023-07-13T02:35:41;20.70;99.90
22185;DHT22;11258;52.516;13.318;2023-07-13T02:38:07;20.70;99.90
22185;DHT22;11258;52.516;13.318;2023-07-13T02:40:34;20.70;99.90
22185;DHT22;11258;52.516;13.318;2023-07-13T02:43:01;20.60;99.90
22185;DHT22;11258;52.516;13.318;2023-07-13T02:45:27;20.50;99.90
22185;DHT22;11258;52.516;13.318;2023-07-13T02:47:53;20.50;99.90
22185;DHT22;11258;52.516;13.318;2023-07-13T02:50:19;20.50;99.90
22185;DHT22;11258;52.516;13.318;2023-07-13T02:52:44;20.50;99.90
22185;DHT22;11258;52.516;13.318;2023-07-13T02:55:10;20.50;99.90
22185;DHT22;11258;52.516;13.318;2023-07-13T02:57:36;20.50;99.90
22185;DHT22;11258;52.516;13.318;2023-07-13T03:00:03;20.40;99.90
22185;DHT22;11258;52.516;13.318;2023-07-13T03:02:33;20.40;99.90
22185;DHT22;11258;52.516;13.318;2023-07-13T03:04:59;20.40;99.90
22185;DHT22;11258;52.516;13.318;2023-07-13T03:07:25;20.40;99.90
22185;DHT22;11258;52.516;13.318;2023-07-13T03:09:55;20.50;99.90
22185;DHT22;11258;52.516;13.318;2023-07-13T03:12:22;20.60;99.90
22185;DHT22;11258;52.516;13.318;2023-07-13T03:14:47;20.50;99.90
22185;DHT22;11258;52.516;13.318;2023-07-13T03:17:13;20.60;99.90
22185;DHT22;11258;52.516;13.318;2023-07-13T03:19:38;20.60;99.90
22185;DHT22;11258;52.516;13.318;2023-07-13T03:22:04;20.50;99.90
22185;DHT22;11258;52.516;13.318;2023-07-13T03:24:32;20.60;99.90
22185;DHT22;11258;52.516;13.318;2023-07-13T03:26:57;20.60;99.90
22185;DHT22;11258;52.516;13.318;2023-07-13T03:29:23;20.70;99.90
22185;DHT22;11258;52.516;13.318;2023-07-13T03:31:48;20.80;99.90
22185;DHT22;11258;52.516;13.318;2023-07-13T03:34:14;20.80;99.90
22185;DHT22;11258;52.516;13.318;2023-07-13T03:36:40;20.80;99.90
22185;DHT22;11258;52.516;13.318;2023-07-13T03:39:05;21.00;99.90
22185;DHT22;11258;52.516;13.318;2023-07-13T03:41:33;21.50;99.90
22185;DHT22;11258;52.516;13.318;2023-07-13T03:43:59;21.60;99.90
22185;DHT22;11258;52.516;13.318;2023-07-13T03:46:25;21.80;99.90
22185;DHT22;11258;52.516;13.318;2023-07-13T03:48:50;22.20;99.90
22185;DHT22;11258;52.516;13.318;2023-07-13T03:51:17;22.30;99.90
22185;DHT22;11258;52.516;13.318;2023-07-13T03:53:44;22.00;99.90
22185;DHT22;11258;52.516;13.318;2023-07-13T03:56:10;21.70;99.90
22185;DHT22;11258;52.516;13.318;2023-07-13T03:58:38;21.70;99.90
22185;DHT22;11258;52.516;13.318;2023-07-13T04:01:07;21.40;99.90
22185;DHT22;11258;52.516;13.318;2023-07-13T04:03:33;21.30;99.90
22185;DHT22;11258;52.516;13.318;2023-07-13T04:06:00;22.30;99.90
22185;DHT22;11258;52.516;13.318;2023-07-13T04:08:32;22.80;99.90
22185;DHT22;11258;52.516;13.318;2023-07-13T04:10:58;23.60;99.90
22185;DHT22;11258;52.516;13.318;2023-07-13T04:13:25;24.60;99.90
22185;DHT22;11258;52.516;13.318;2023-07-13T04:15:52;25.60;99.90
22185;DHT22;11258;52.516;13.318;2023-07-13T04:18:18;26.30;99.90
22185;DHT22;11258;52.516;13.318;2023-07-13T04:20:45;26.90;99.90
22185;DHT22;11258;52.516;13.318;2023-07-13T04:23:11;27.40;99.90
22185;DHT22;11258;52.516;13.318;2023-07-13T04:25:37;27.90;99.90
22185;DHT22;11258;52.516;13.318;2023-07-13T04:28:04;28.20;99.90
22185;DHT22;11258;52.516;13.318;2023-07-13T04:30:30;29.00;99.90
22185;DHT22;11258;52.516;13.318;2023-07-13T04:32:55;29.10;99.90
22185;DHT22;11258;52.516;13.318;2023-07-13T04:35:21;29.30;99.90
22185;DHT22;11258;52.516;13.318;2023-07-13T04:37:50;29.60;99.90
22185;DHT22;11258;52.516;13.318;2023-07-13T04:40:19;29.90;99.90
22185;DHT22;11258;52.516;13.318;2023-07-13T04:42:46;30.10;99.90
22185;DHT22;11258;52.516;13.318;2023-07-13T04:45:13;30.30;99.90
22185;DHT22;11258;52.516;13.318;2023-07-13T04:47:39;30.70;99.90
22185;DHT22;11258;52.516;13.318;2023-07-13T04:50:07;30.70;99.90
22185;DHT22;11258;52.516;13.318;2023-07-13T04:52:33;31.10;99.90
22185;DHT22;11258;52.516;13.318;2023-07-13T04:55:00;31.20;99.90
22185;DHT22;11258;52.516;13.318;2023-07-13T04:57:26;31.20;99.90
22185;DHT22;11258;52.516;13.318;2023-07-13T04:59:53;31.40;99.90
22185;DHT22;11258;52.516;13.318;2023-07-13T05:02:20;32.20;99.90
22185;DHT22;11258;52.516;13.318;2023-07-13T05:04:48;33.00;99.40
22185;DHT22;11258;52.516;13.318;2023-07-13T05:07:14;33.30;98.10
22185;DHT22;11258;52.516;13.318;2023-07-13T05:09:40;33.60;96.80
22185;DHT22;11258;52.516;13.318;2023-07-13T05:12:08;33.80;96.00
22185;DHT22;11258;52.516;13.318;2023-07-13T05:14:34;33.60;95.60
22185;DHT22;11258;52.516;13.318;2023-07-13T05:17:00;34.00;94.50
22185;DHT22;11258;52.516;13.318;2023-07-13T05:19:26;33.90;93.80
22185;DHT22;11258;52.516;13.318;2023-07-13T05:21:51;33.50;94.20
22185;DHT22;11258;52.516;13.318;2023-07-13T05:24:17;33.90;93.50
22185;DHT22;11258;52.516;13.318;2023-07-13T05:26:44;33.30;93.50
22185;DHT22;11258;52.516;13.318;2023-07-13T05:29:09;33.80;93.30
22185;DHT22;11258;52.516;13.318;2023-07-13T05:31:35;33.60;93.00
22185;DHT22;11258;52.516;13.318;2023-07-13T05:34:00;33.50;92.60
22185;DHT22;11258;52.516;13.318;2023-07-13T05:36:26;33.50;92.60
22185;DHT22;11258;52.516;13.318;2023-07-13T05:38:52;33.70;92.40
22185;DHT22;11258;52.516;13.318;2023-07-13T05:41:17;33.50;92.00
22185;DHT22;11258;52.516;13.318;2023-07-13T05:43:43;33.50;92.30
22185;DHT22;11258;52.516;13.318;2023-07-13T05:46:09;34.20;91.60
22185;DHT22;11258;52.516;13.318;2023-07-13T05:48:34;34.50;90.90
22185;DHT22;11258;52.516;13.318;2023-07-13T05:51:01;34.60;90.40
22185;DHT22;11258;52.516;13.318;2023-07-13T05:53:26;34.60;89.90
22185;DHT22;11258;52.516;13.318;2023-07-13T05:55:54;34.30;90.00
22185;DHT22;11258;52.516;13.318;2023-07-13T05:58:20;34.40;89.70
22185;DHT22;11258;52.516;13.318;2023-07-13T06:00:46;34.00;89.60
22185;DHT22;11258;52.516;13.318;2023-07-13T06:03:12;34.10;89.80
22185;DHT22;11258;52.516;13.318;2023-07-13T06:05:38;34.10;89.70
22185;DHT22;11258;52.516;13.318;2023-07-13T06:08:05;34.30;89.80
22185;DHT22;11258;52.516;13.318;2023-07-13T06:10:36;34.30;89.00
22185;DHT22;11258;52.516;13.318;2023-07-13T06:13:02;34.10;89.10
22185;DHT22;11258;52.516;13.318;2023-07-13T06:15:28;34.50;89.10
22185;DHT22;11258;52.516;13.318;2023-07-13T06:17:54;35.10;87.50
22185;DHT22;11258;52.516;13.318;2023-07-13T06:20:20;35.00;86.80
22185;DHT22;11258;52.516;13.318;2023-07-13T06:22:45;35.80;84.80
22185;DHT22;11258;52.516;13.318;2023-07-13T06:25:11;35.80;85.40
22185;DHT22;11258;52.516;13.318;2023-07-13T06:27:37;36.20;83.70
22185;DHT22;11258;52.516;13.318;2023-07-13T06:30:02;36.10;82.60
22185;DHT22;11258;52.516;13.318;2023-07-13T06:32:28;36.50;81.70
22185;DHT22;11258;52.516;13.318;2023-07-13T06:34:54;36.30;81.20
22185;DHT22;11258;52.516;13.318;2023-07-13T06:37:19;36.40;80.20
22185;DHT22;11258;52.516;13.318;2023-07-13T06:39:45;36.70;80.20
22185;DHT22;11258;52.516;13.318;2023-07-13T06:42:11;36.90;78.30
22185;DHT22;11258;52.516;13.318;2023-07-13T06:44:37;37.00;79.10
22185;DHT22;11258;52.516;13.318;2023-07-13T06:47:02;37.60;77.70
22185;DHT22;11258;52.516;13.318;2023-07-13T06:49:28;37.90;76.20
22185;DHT22;11258;52.516;13.318;2023-07-13T06:51:54;38.20;74.60
22185;DHT22;11258;52.516;13.318;2023-07-13T06:54:19;38.10;73.80
22185;DHT22;11258;52.516;13.318;2023-07-13T06:56:45;37.80;73.90
22185;DHT22;11258;52.516;13.318;2023-07-13T06:59:11;37.50;73.10
22185;DHT22;11258;52.516;13.318;2023-07-13T07:01:36;37.30;73.60
22185;DHT22;11258;52.516;13.318;2023-07-13T07:04:03;37.60;74.00
22185;DHT22;11258;52.516;13.318;2023-07-13T07:06:29;37.90;73.70
22185;DHT22;11258;52.516;13.318;2023-07-13T07:08:55;37.80;73.90
22185;DHT22;11258;52.516;13.318;2023-07-13T07:11:23;37.80;72.60
22185;DHT22;11258;52.516;13.318;2023-07-13T07:13:51;37.80;72.10
22185;DHT22;11258;52.516;13.318;2023-07-13T07:16:17;37.50;71.90
22185;DHT22;11258;52.516;13.318;2023-07-13T07:18:43;38.10;71.90
22185;DHT22;11258;52.516;13.318;2023-07-13T07:21:09;38.60;71.20
22185;DHT22;11258;52.516;13.318;2023-07-13T07:23:35;39.30;70.00
22185;DHT22;11258;52.516;13.318;2023-07-13T07:26:01;38.80;69.60
22185;DHT22;11258;52.516;13.318;2023-07-13T07:28:26;37.60;70.60
22185;DHT22;11258;52.516;13.318;2023-07-13T07:30:55;36.00;73.10
22185;DHT22;11258;52.516;13.318;2023-07-13T07:33:21;34.60;76.00
22185;DHT22;11258;52.516;13.318;2023-07-13T07:35:47;33.40;78.00
22185;DHT22;11258;52.516;13.318;2023-07-13T07:38:13;33.10;78.50
22185;DHT22;11258;52.516;13.318;2023-07-13T07:40:40;32.10;80.00
22185;DHT22;11258;52.516;13.318;2023-07-13T07:43:06;31.40;82.30
22185;DHT22;11258;52.516;13.318;2023-07-13T07:45:32;30.80;82.90
22185;DHT22;11258;52.516;13.318;2023-07-13T07:47:58;29.90;84.70
22185;DHT22;11258;52.516;13.318;2023-07-13T07:50:25;29.40;86.20
22185;DHT22;11258;52.516;13.318;2023-07-13T07:52:51;29.00;87.20
22185;DHT22;11258;52.516;13.318;2023-07-13T07:55:17;29.10;88.40
22185;DHT22;11258;52.516;13.318;2023-07-13T07:57:43;29.30;89.30
22185;DHT22;11258;52.516;13.318;2023-07-13T08:00:09;29.30;89.80
22185;DHT22;11258;52.516;13.318;2023-07-13T08:02:35;29.40;89.80
22185;DHT22;11258;52.516;13.318;2023-07-13T08:05:00;29.50;88.80
22185;DHT22;11258;52.516;13.318;2023-07-13T08:07:26;29.00;89.40
22185;DHT22;11258;52.516;13.318;2023-07-13T08:09:53;29.40;88.60
22185;DHT22;11258;52.516;13.318;2023-07-13T08:12:19;29.60;88.20
22185;DHT22;11258;52.516;13.318;2023-07-13T08:14:44;29.50;88.40
22185;DHT22;11258;52.516;13.318;2023-07-13T08:17:10;29.30;89.40
22185;DHT22;11258;52.516;13.318;2023-07-13T08:19:35;29.60;90.00
22185;DHT22;11258;52.516;13.318;2023-07-13T08:22:01;29.70;89.90
22185;DHT22;11258;52.516;13.318;2023-07-13T08:24:27;30.10;89.80
22185;DHT22;11258;52.516;13.318;2023-07-13T08:26:52;30.30;88.90
22185;DHT22;11258;52.516;13.318;2023-07-13T08:29:18;30.60;87.50
22185;DHT22;11258;52.516;13.318;2023-07-13T08:31:43;30.80;87.20
22185;DHT22;11258;52.516;13.318;2023-07-13T08:34:10;30.90;86.20
22185;DHT22;11258;52.516;13.318;2023-07-13T08:36:36;31.00;85.00
22185;DHT22;11258;52.516;13.318;2023-07-13T08:39:02;30.50;86.10
22185;DHT22;11258;52.516;13.318;2023-07-13T08:41:28;30.30;87.40
22185;DHT22;11258;52.516;13.318;2023-07-13T08:43:58;29.90;87.60
22185;DHT22;11258;52.516;13.318;2023-07-13T08:46:35;29.40;88.20
22185;DHT22;11258;52.516;13.318;2023-07-13T08:49:15;28.80;89.80
22185;DHT22;11258;52.516;13.318;2023-07-13T08:54:32;29.70;89.90
22185;DHT22;11258;52.516;13.318;2023-07-13T08:57:03;31.40;86.10
22185;DHT22;11258;52.516;13.318;2023-07-13T08:59:32;32.60;82.60
22185;DHT22;11258;52.516;13.318;2023-07-13T09:04:33;33.80;80.20
22185;DHT22;11258;52.516;13.318;2023-07-13T09:10:00;33.70;78.50
22185;DHT22;11258;52.516;13.318;2023-07-13T09:15:07;33.50;78.20
22185;DHT22;11258;52.516;13.318;2023-07-13T09:17:49;33.60;76.60
22185;DHT22;11258;52.516;13.318;2023-07-13T09:20:30;33.80;76.70
22185;DHT22;11258;52.516;13.318;2023-07-13T09:23:00;33.50;76.30
22185;DHT22;11258;52.516;13.318;2023-07-13T09:25:30;33.40;77.10
22185;DHT22;11258;52.516;13.318;2023-07-13T09:28:46;33.40;77.10
22185;DHT22;11258;52.516;13.318;2023-07-13T09:33:17;33.50;75.00
22185;DHT22;11258;52.516;13.318;2023-07-13T09:35:42;33.20;74.60
22185;DHT22;11258;52.516;13.318;2023-07-13T09:38:12;32.10;75.20
22185;DHT22;11258;52.516;13.318;2023-07-13T09:40:57;32.00;74.10
22185;DHT22;11258;52.516;13.318;2023-07-13T09:43:24;31.70;74.80
22185;DHT22;11258;52.516;13.318;2023-07-13T09:45:50;31.80;76.30
22185;DHT22;11258;52.516;13.318;2023-07-13T09:48:17;31.00;78.40
22185;DHT22;11258;52.516;13.318;2023-07-13T09:50:44;31.10;79.40
22185;DHT22;11258;52.516;13.318;2023-07-13T09:53:18;31.30;79.50
22185;DHT22;11258;52.516;13.318;2023-07-13T09:55:46;31.80;78.60
22185;DHT22;11258;52.516;13.318;2023-07-13T09:58:17;31.70;79.10
22185;DHT22;11258;52.516;13.318;2023-07-13T10:00:58;31.50;78.40
22185;DHT22;11258;52.516;13.318;2023-07-13T10:03:30;31.40;78.60
22185;DHT22;11258;52.516;13.318;2023-07-13T10:06:12;31.50;79.40
22185;DHT22;11258;52.516;13.318;2023-07-13T10:08:38;31.20;79.20
22185;DHT22;11258;52.516;13.318;2023-07-13T10:11:34;31.10;79.50
22185;DHT22;11258;52.516;13.318;2023-07-13T10:14:01;31.00;80.30
22185;DHT22;11258;52.516;13.318;2023-07-13T10:16:33;30.70;80.20
22185;DHT22;11258;52.516;13.318;2023-07-13T10:19:02;30.70;79.90
22185;DHT22;11258;52.516;13.318;2023-07-13T10:21:35;30.40;79.50
22185;DHT22;11258;52.516;13.318;2023-07-13T10:26:45;30.30;79.30
22185;DHT22;11258;52.516;13.318;2023-07-13T10:29:12;30.00;80.00
22185;DHT22;11258;52.516;13.318;2023-07-13T10:31:40;30.40;80.60
22185;DHT22;11258;52.516;13.318;2023-07-13T10:34:10;30.80;80.50
22185;DHT22;11258;52.516;13.318;2023-07-13T10:36:40;31.10;80.30
22185;DHT22;11258;52.516;13.318;2023-07-13T10:39:06;31.00;80.50
22185;DHT22;11258;52.516;13.318;2023-07-13T10:41:39;31.30;80.60
22185;DHT22;11258;52.516;13.318;2023-07-13T10:44:18;31.20;79.90
22185;DHT22;11258;52.516;13.318;2023-07-13T10:46:45;31.20;78.60
22185;DHT22;11258;52.516;13.318;2023-07-13T10:49:12;31.20;77.80
22185;DHT22;11258;52.516;13.318;2023-07-13T10:51:38;30.80;78.90
22185;DHT22;11258;52.516;13.318;2023-07-13T10:54:18;30.90;79.80
22185;DHT22;11258;52.516;13.318;2023-07-13T10:56:45;30.90;79.20
22185;DHT22;11258;52.516;13.318;2023-07-13T10:59:15;30.80;79.50
22185;DHT22;11258;52.516;13.318;2023-07-13T11:01:57;30.60;79.60
22185;DHT22;11258;52.516;13.318;2023-07-13T11:04:25;30.40;79.40
22185;DHT22;11258;52.516;13.318;2023-07-13T11:06:56;30.60;79.80
22185;DHT22;11258;52.516;13.318;2023-07-13T11:22:47;29.30;80.70
22185;DHT22;11258;52.516;13.318;2023-07-13T11:27:49;28.90;81.50
22185;DHT22;11258;52.516;13.318;2023-07-13T11:33:19;28.90;79.80
22185;DHT22;11258;52.516;13.318;2023-07-13T11:36:02;29.00;79.80
22185;DHT22;11258;52.516;13.318;2023-07-13T11:38:39;29.00;79.80
22185;DHT22;11258;52.516;13.318;2023-07-13T11:43:32;29.10;77.70
22185;DHT22;11258;52.516;13.318;2023-07-13T11:46:22;29.30;78.70
22185;DHT22;11258;52.516;13.318;2023-07-13T11:48:49;29.50;79.10
22185;DHT22;11258;52.516;13.318;2023-07-13T11:51:28;29.30;79.00
22185;DHT22;11258;52.516;13.318;2023-07-13T11:53:55;28.80;79.10
22185;DHT22;11258;52.516;13.318;2023-07-13T11:56:23;28.90;80.20
22185;DHT22;11258;52.516;13.318;2023-07-13T11:58:54;29.00;80.20
22185;DHT22;11258;52.516;13.318;2023-07-13T12:01:23;28.90;80.60
22185;DHT22;11258;52.516;13.318;2023-07-13T12:03:51;29.10;80.70
22185;DHT22;11258;52.516;13.318;2023-07-13T12:06:36;28.80;81.00
22185;DHT22;11258;52.516;13.318;2023-07-13T12:09:14;28.60;81.70
22185;DHT22;11258;52.516;13.318;2023-07-13T12:11:44;28.80;81.70
22185;DHT22;11258;52.516;13.318;2023-07-13T12:14:14;29.00;82.00
22185;DHT22;11258;52.516;13.318;2023-07-13T12:16:41;29.10;81.40
22185;DHT22;11258;52.516;13.318;2023-07-13T12:19:23;29.00;82.00
22185;DHT22;11258;52.516;13.318;2023-07-13T12:21:52;28.90;81.90
22185;DHT22;11258;52.516;13.318;2023-07-13T12:24:19;28.80;81.50
22185;DHT22;11258;52.516;13.318;2023-07-13T12:26:52;28.60;80.30
22185;DHT22;11258;52.516;13.318;2023-07-13T12:29:18;28.40;80.30
22185;DHT22;11258;52.516;13.318;2023-07-13T12:31:46;28.40;80.90
22185;DHT22;11258;52.516;13.318;2023-07-13T12:34:14;28.40;82.00
22185;DHT22;11258;52.516;13.318;2023-07-13T12:36:48;28.40;80.60
22185;DHT22;11258;52.516;13.318;2023-07-13T12:39:16;28.30;80.40
22185;DHT22;11258;52.516;13.318;2023-07-13T12:41:42;28.20;80.40
22185;DHT22;11258;52.516;13.318;2023-07-13T12:44:31;28.10;80.40
22185;DHT22;11258;52.516;13.318;2023-07-13T12:47:05;28.20;80.40
22185;DHT22;11258;52.516;13.318;2023-07-13T12:49:41;28.10;80.50
22185;DHT22;11258;52.516;13.318;2023-07-13T12:52:14;27.90;80.70
22185;DHT22;11258;52.516;13.318;2023-07-13T12:54:41;27.90;81.10
22185;DHT22;11258;52.516;13.318;2023-07-13T12:57:13;27.70;81.10
22185;DHT22;11258;52.516;13.318;2023-07-13T12:59:42;27.60;82.30
22185;DHT22;11258;52.516;13.318;2023-07-13T13:02:32;27.40;81.70
22185;DHT22;11258;52.516;13.318;2023-07-13T13:05:00;27.40;82.20
22185;DHT22;11258;52.516;13.318;2023-07-13T13:07:26;27.40;81.80
22185;DHT22;11258;52.516;13.318;2023-07-13T13:09:52;27.20;82.00
22185;DHT22;11258;52.516;13.318;2023-07-13T13:12:19;27.40;82.30
22185;DHT22;11258;52.516;13.318;2023-07-13T13:14:45;27.60;82.60
22185;DHT22;11258;52.516;13.318;2023-07-13T13:17:19;27.80;83.30
22185;DHT22;11258;52.516;13.318;2023-07-13T13:19:46;28.00;82.90
22185;DHT22;11258;52.516;13.318;2023-07-13T13:22:12;27.80;82.00
22185;DHT22;11258;52.516;13.318;2023-07-13T13:24:39;27.90;81.60
22185;DHT22;11258;52.516;13.318;2023-07-13T13:27:05;28.00;81.40
22185;DHT22;11258;52.516;13.318;2023-07-13T13:29:32;28.00;81.10
22185;DHT22;11258;52.516;13.318;2023-07-13T13:31:59;28.00;81.50
22185;DHT22;11258;52.516;13.318;2023-07-13T13:34:25;27.90;82.00
22185;DHT22;11258;52.516;13.318;2023-07-13T13:36:52;27.80;82.70
22185;DHT22;11258;52.516;13.318;2023-07-13T13:39:34;27.80;81.90
22185;DHT22;11258;52.516;13.318;2023-07-13T13:42:01;27.80;82.00
22185;DHT22;11258;52.516;13.318;2023-07-13T13:44:26;27.70;82.00
22185;DHT22;11258;52.516;13.318;2023-07-13T13:46:53;27.70;82.40
22185;DHT22;11258;52.516;13.318;2023-07-13T13:49:25;27.60;81.80
22185;DHT22;11258;52.516;13.318;2023-07-13T13:51:53;27.80;82.60
22185;DHT22;11258;52.516;13.318;2023-07-13T13:54:20;27.90;81.30
22185;DHT22;11258;52.516;13.318;2023-07-13T13:56:48;27.60;81.50
22185;DHT22;11258;52.516;13.318;2023-07-13T13:59:14;27.80;82.20
22185;DHT22;11258;52.516;13.318;2023-07-13T14:01:42;27.70;81.30
22185;DHT22;11258;52.516;13.318;2023-07-13T14:04:20;27.60;81.50
22185;DHT22;11258;52.516;13.318;2023-07-13T14:06:46;27.60;82.60
22185;DHT22;11258;52.516;13.318;2023-07-13T14:09:14;27.70;82.80
22185;DHT22;11258;52.516;13.318;2023-07-13T14:11:41;27.80;83.10
22185;DHT22;11258;52.516;13.318;2023-07-13T14:14:22;28.00;83.40
22185;DHT22;11258;52.516;13.318;2023-07-13T14:16:49;27.80;83.20
22185;DHT22;11258;52.516;13.318;2023-07-13T14:19:19;27.80;83.70
22185;DHT22;11258;52.516;13.318;2023-07-13T14:21:45;27.70;84.20
22185;DHT22;11258;52.516;13.318;2023-07-13T14:24:10;27.40;84.30
22185;DHT22;11258;52.516;13.318;2023-07-13T14:26:40;27.50;84.70
22185;DHT22;11258;52.516;13.318;2023-07-13T14:29:15;27.50;85.00
22185;DHT22;11258;52.516;13.318;2023-07-13T14:31:42;27.30;84.50
22185;DHT22;11258;52.516;13.318;2023-07-13T14:34:10;27.30;84.20
22185;DHT22;11258;52.516;13.318;2023-07-13T14:36:42;27.40;84.40
22185;DHT22;11258;52.516;13.318;2023-07-13T14:39:12;27.40;84.00
22185;DHT22;11258;52.516;13.318;2023-07-13T14:41:38;27.40;83.40
22185;DHT22;11258;52.516;13.318;2023-07-13T14:44:15;27.30;83.60
22185;DHT22;11258;52.516;13.318;2023-07-13T14:46:41;27.30;84.10
22185;DHT22;11258;52.516;13.318;2023-07-13T14:51:49;27.40;84.30
22185;DHT22;11258;52.516;13.318;2023-07-13T14:54:15;27.50;83.50
22185;DHT22;11258;52.516;13.318;2023-07-13T14:56:40;27.40;83.70
22185;DHT22;11258;52.516;13.318;2023-07-13T14:59:06;27.50;84.00
22185;DHT22;11258;52.516;13.318;2023-07-13T15:01:34;27.60;83.30
22185;DHT22;11258;52.516;13.318;2023-07-13T15:04:00;27.60;81.70
22185;DHT22;11258;52.516;13.318;2023-07-13T15:06:26;27.50;80.50
22185;DHT22;11258;52.516;13.318;2023-07-13T15:08:51;27.50;80.30
22185;DHT22;11258;52.516;13.318;2023-07-13T15:11:17;27.50;80.50
22185;DHT22;11258;52.516;13.318;2023-07-13T15:13:43;27.60;79.90
22185;DHT22;11258;52.516;13.318;2023-07-13T15:16:16;27.60;80.40
22185;DHT22;11258;52.516;13.318;2023-07-13T15:18:44;27.50;80.10
22185;DHT22;11258;52.516;13.318;2023-07-13T15:21:11;27.50;81.20
22185;DHT22;11258;52.516;13.318;2023-07-13T15:23:40;27.30;82.20
22185;DHT22;11258;52.516;13.318;2023-07-13T15:26:12;27.40;82.40
22185;DHT22;11258;52.516;13.318;2023-07-13T15:28:38;27.20;82.50
22185;DHT22;11258;52.516;13.318;2023-07-13T15:31:24;27.00;83.10
22185;DHT22;11258;52.516;13.318;2023-07-13T15:33:51;27.10;83.30
22185;DHT22;11258;52.516;13.318;2023-07-13T15:36:21;27.30;83.20
22185;DHT22;11258;52.516;13.318;2023-07-13T15:38:48;27.20;83.60
22185;DHT22;11258;52.516;13.318;2023-07-13T15:43:46;27.10;84.00
22185;DHT22;11258;52.516;13.318;2023-07-13T15:46:11;27.10;84.30
22185;DHT22;11258;52.516;13.318;2023-07-13T15:48:37;27.10;84.30
22185;DHT22;11258;52.516;13.318;2023-07-13T15:51:05;27.10;84.90
22185;DHT22;11258;52.516;13.318;2023-07-13T15:53:35;27.10;84.90
22185;DHT22;11258;52.516;13.318;2023-07-13T15:56:20;27.10;84.40
22185;DHT22;11258;52.516;13.318;2023-07-13T15:58:47;27.00;84.40
22185;DHT22;11258;52.516;13.318;2023-07-13T16:01:13;27.00;84.70
22185;DHT22;11258;52.516;13.318;2023-07-13T16:03:39;26.80;84.40